createdAt,value
2018-12-15T00:01:27.582Z,16.90
2018-12-15T00:04:32.003Z,17.70
2018-12-15T00:07:36.295Z,21.23
2018-12-15T00:10:40.623Z,20.97
2018-12-15T00:13:44.911Z,21.23
2018-12-15T00:16:49.287Z,23.57
2018-12-15T00:19:53.669Z,20.67
2018-12-15T00:22:57.914Z,20.13
2018-12-15T00:26:02.152Z,22.07
2018-12-15T00:29:06.372Z,18.50
2018-12-15T00:32:10.695Z,26.50
2018-12-15T00:35:14.911Z,22.83
2018-12-15T00:38:19.199Z,20.40
2018-12-15T00:41:23.436Z,19.63
2018-12-15T00:44:27.744Z,19.40
2018-12-15T00:47:32.043Z,18.73
2018-12-15T00:50:36.250Z,20.70
2018-12-15T00:53:40.552Z,21.70
2018-12-15T00:56:44.796Z,20.13
2018-12-15T00:59:48.992Z,21.33
2018-12-15T01:02:53.403Z,20.90
2018-12-15T01:05:57.742Z,22.00
2018-12-15T01:09:02.048Z,22.57
2018-12-15T01:12:06.383Z,21.27
2018-12-15T01:15:10.684Z,20.97
2018-12-15T01:18:15.588Z,20.83
2018-12-15T01:21:19.891Z,22.80
2018-12-15T01:24:24.158Z,20.83
2018-12-15T01:27:28.404Z,21.47
2018-12-15T01:30:32.597Z,22.37
2018-12-15T01:33:36.834Z,20.97
2018-12-15T01:36:41.062Z,20.40
2018-12-15T01:39:45.296Z,22.30
2018-12-15T01:42:49.699Z,21.03
2018-12-15T01:45:54.014Z,22.70
2018-12-15T01:48:58.271Z,19.67
2018-12-15T01:52:02.568Z,22.00
2018-12-15T01:55:07.180Z,21.03
2018-12-15T01:58:11.411Z,19.27
2018-12-15T02:01:15.719Z,21.43
2018-12-15T02:04:19.980Z,20.67
2018-12-15T02:07:24.281Z,21.07
2018-12-15T02:10:28.595Z,18.30
2018-12-15T02:13:32.963Z,21.10
2018-12-15T02:16:37.243Z,19.33
2018-12-15T02:19:41.543Z,21.73
2018-12-15T02:22:45.808Z,20.07
2018-12-15T02:25:50.079Z,17.73
2018-12-15T02:28:54.295Z,20.00
2018-12-15T02:31:58.497Z,22.77
2018-12-15T02:35:02.738Z,19.67
2018-12-15T02:38:07.024Z,17.30
2018-12-15T02:41:11.260Z,19.47
2018-12-15T02:44:15.494Z,21.60
2018-12-15T02:47:19.808Z,17.83
2018-12-15T02:50:24.023Z,19.57
2018-12-15T02:53:28.363Z,18.77
2018-12-15T02:56:32.663Z,19.27
2018-12-15T02:59:36.925Z,20.60
2018-12-15T03:02:41.116Z,19.53
2018-12-15T03:05:45.508Z,20.27
2018-12-15T03:08:49.833Z,17.80
2018-12-15T03:11:54.186Z,21.40
2018-12-15T03:14:58.438Z,21.23
2018-12-15T03:18:02.725Z,19.17
2018-12-15T03:21:06.970Z,20.43
2018-12-15T03:24:11.194Z,19.47
2018-12-15T03:27:15.406Z,20.80
2018-12-15T03:30:19.826Z,19.00
2018-12-15T03:33:24.130Z,19.93
2018-12-15T03:36:28.403Z,20.97
2018-12-15T03:39:34.799Z,19.97
2018-12-15T03:42:39.047Z,20.00
2018-12-15T03:45:43.441Z,23.47
2018-12-15T03:48:47.672Z,19.27
2018-12-15T03:51:52.019Z,20.63
2018-12-15T03:54:56.279Z,22.60
2018-12-15T03:58:00.500Z,23.33
2018-12-15T04:01:04.864Z,19.40
2018-12-15T04:04:09.108Z,20.83
2018-12-15T04:07:13.384Z,19.13
2018-12-15T04:10:17.703Z,21.60
2018-12-15T04:13:21.948Z,20.00
2018-12-15T04:16:26.182Z,21.43
2018-12-15T04:19:30.405Z,21.67
2018-12-15T04:22:34.639Z,22.83
2018-12-15T04:25:38.869Z,21.83
2018-12-15T04:28:43.065Z,19.87
2018-12-15T04:31:47.280Z,20.93
2018-12-15T04:34:51.502Z,22.23
2018-12-15T04:37:55.748Z,23.57
2018-12-15T04:40:59.947Z,23.30
2018-12-15T04:44:04.539Z,21.83
2018-12-15T04:47:09.101Z,22.93
2018-12-15T04:50:13.447Z,22.57
2018-12-15T04:53:17.637Z,20.87
2018-12-15T04:56:21.871Z,22.97
2018-12-15T04:59:26.064Z,21.60
2018-12-15T05:02:30.426Z,19.17
2018-12-15T05:05:34.632Z,19.50
2018-12-15T05:08:38.875Z,19.47
2018-12-15T05:11:43.178Z,19.93
2018-12-15T05:14:47.391Z,20.77
2018-12-15T05:17:51.596Z,19.13
2018-12-15T05:20:55.927Z,21.07
2018-12-15T05:24:00.134Z,21.47
2018-12-15T05:27:05.148Z,19.47
2018-12-15T05:30:09.621Z,17.43
2018-12-15T05:33:13.831Z,17.20
2018-12-15T05:36:18.215Z,15.07
2018-12-15T05:39:22.375Z,18.70
2018-12-15T05:42:26.657Z,15.63
2018-12-15T05:45:30.952Z,16.47
2018-12-15T05:48:35.216Z,15.47
2018-12-15T05:51:39.648Z,15.97
2018-12-15T05:54:43.842Z,17.00
2018-12-15T05:57:48.051Z,15.33
2018-12-15T06:00:52.240Z,15.60
2018-12-15T06:03:56.441Z,15.13
2018-12-15T06:07:00.646Z,15.37
2018-12-15T06:10:06.054Z,16.73
2018-12-15T06:13:10.323Z,13.73
2018-12-15T06:16:14.612Z,14.43
2018-12-15T06:19:18.811Z,14.00
2018-12-15T06:22:23.036Z,13.77
2018-12-15T06:25:27.352Z,15.50
2018-12-15T06:28:31.552Z,15.67
2018-12-15T06:31:35.811Z,14.80
2018-12-15T06:34:40.040Z,13.73
2018-12-15T06:37:44.303Z,15.00
2018-12-15T06:40:48.601Z,12.13
2018-12-15T06:43:52.989Z,13.47
2018-12-15T06:46:57.188Z,11.80
2018-12-15T06:50:01.378Z,14.10
2018-12-15T06:53:05.657Z,15.00
2018-12-15T06:56:09.947Z,16.10
2018-12-15T06:59:14.191Z,15.40
2018-12-15T07:02:18.473Z,14.93
2018-12-15T07:05:22.771Z,15.80
2018-12-15T07:08:26.973Z,14.00
2018-12-15T07:11:31.246Z,13.53
2018-12-15T07:14:35.453Z,12.27
2018-12-15T07:17:39.719Z,12.90
2018-12-15T07:20:44.051Z,14.73
2018-12-15T07:23:48.272Z,16.90
2018-12-15T07:26:52.615Z,12.07
2018-12-15T07:29:56.803Z,12.43
2018-12-15T07:33:01.049Z,14.40
2018-12-15T07:36:05.357Z,11.37
2018-12-15T07:39:09.858Z,13.63
2018-12-15T07:42:14.256Z,11.30
2018-12-15T07:45:18.495Z,13.33
2018-12-15T07:48:22.760Z,15.00
2018-12-15T07:51:27.038Z,14.23
2018-12-15T07:54:31.231Z,16.47
2018-12-15T07:57:35.520Z,17.00
2018-12-15T08:00:39.880Z,17.97
2018-12-15T08:03:44.214Z,15.00
2018-12-15T08:06:48.508Z,14.47
2018-12-15T08:09:52.797Z,20.40
2018-12-15T08:13:00.362Z,17.03
2018-12-15T08:16:04.677Z,16.50
2018-12-15T08:19:08.870Z,17.60
2018-12-15T08:22:13.103Z,17.13
2018-12-15T08:25:17.555Z,18.27
2018-12-15T08:28:21.855Z,19.57
2018-12-15T08:31:26.125Z,19.53
2018-12-15T08:34:30.354Z,19.43
2018-12-15T08:37:34.720Z,19.97
2018-12-15T08:40:38.995Z,20.13
2018-12-15T08:43:43.239Z,17.63
2018-12-15T08:46:47.623Z,15.57
2018-12-15T08:49:51.846Z,18.47
2018-12-15T08:52:56.132Z,18.57
2018-12-15T08:56:00.339Z,18.20
2018-12-15T08:59:04.612Z,19.97
2018-12-15T09:02:08.819Z,19.77
2018-12-15T09:05:13.071Z,19.33
2018-12-15T09:08:17.369Z,18.80
2018-12-15T09:11:21.755Z,16.27
2018-12-15T09:14:25.967Z,15.90
2018-12-15T09:17:30.247Z,14.57
2018-12-15T09:20:34.518Z,13.77
2018-12-15T09:23:38.840Z,12.10
2018-12-15T09:26:43.068Z,16.33
2018-12-15T09:29:47.284Z,10.33
2018-12-15T09:32:51.481Z,11.43
2018-12-15T09:35:55.676Z,13.20
2018-12-15T09:38:59.870Z,14.20
2018-12-15T09:42:04.211Z,12.60
2018-12-15T09:45:08.627Z,12.30
2018-12-15T09:48:12.888Z,13.57
2018-12-15T09:51:17.092Z,13.60
2018-12-15T09:54:21.340Z,12.43
2018-12-15T09:57:25.622Z,14.23
2018-12-15T10:00:29.803Z,15.60
2018-12-15T10:03:34.103Z,13.90
2018-12-15T10:06:38.320Z,13.53
2018-12-15T10:09:42.595Z,13.20
2018-12-15T10:12:46.914Z,10.77
2018-12-15T10:15:51.115Z,10.53
2018-12-15T10:18:55.407Z,9.60
2018-12-15T10:21:59.695Z,10.67
2018-12-15T10:25:04.051Z,11.53
2018-12-15T10:28:08.245Z,9.10
2018-12-15T10:32:19.534Z,11.67
2018-12-15T10:35:23.963Z,12.60
2018-12-15T10:38:28.144Z,10.67
2018-12-15T10:41:32.344Z,10.80
2018-12-15T10:44:36.626Z,11.97
2018-12-15T10:47:41.059Z,11.40
2018-12-15T10:50:45.266Z,13.57
2018-12-15T10:53:49.543Z,12.57
2018-12-15T10:56:53.750Z,14.53
2018-12-15T10:59:57.951Z,13.53
2018-12-15T11:03:02.227Z,14.17
2018-12-15T11:06:06.548Z,14.63
2018-12-15T11:09:10.735Z,15.87
2018-12-15T11:12:15.000Z,14.97
2018-12-15T11:15:19.376Z,13.20
2018-12-15T11:18:23.568Z,13.27
2018-12-15T11:21:27.884Z,14.07
2018-12-15T11:24:32.138Z,13.93
2018-12-15T11:27:36.351Z,13.07
2018-12-15T11:30:40.723Z,16.10
2018-12-15T11:33:44.974Z,15.77
2018-12-15T11:36:49.264Z,13.67
2018-12-15T11:39:53.475Z,16.77
2018-12-15T11:42:57.697Z,15.83
2018-12-15T11:46:01.933Z,17.47
2018-12-15T11:49:06.299Z,20.90
2018-12-15T11:52:10.593Z,20.80
2018-12-15T11:55:14.850Z,19.40
2018-12-15T11:58:20.153Z,18.67
2018-12-15T12:01:24.443Z,20.43
2018-12-15T12:04:28.797Z,20.60
2018-12-15T12:07:33.111Z,19.33
2018-12-15T12:10:37.308Z,19.20
2018-12-15T12:13:41.647Z,18.73
2018-12-15T12:16:45.947Z,21.20
2018-12-15T12:19:50.465Z,20.17
2018-12-15T12:22:54.915Z,20.93
2018-12-15T12:25:59.275Z,20.00
2018-12-15T12:29:03.532Z,18.00
2018-12-15T12:32:07.819Z,19.47
2018-12-15T12:35:12.143Z,23.27
2018-12-15T12:38:16.369Z,22.37
2018-12-15T12:41:20.632Z,20.27
2018-12-15T12:44:25.078Z,17.00
2018-12-15T12:47:29.478Z,20.67
2018-12-15T12:50:33.785Z,17.17
2018-12-15T12:53:38.095Z,20.67
2018-12-15T12:56:42.366Z,18.33
2018-12-15T12:59:46.687Z,18.60
2018-12-15T13:02:50.946Z,20.67
2018-12-15T13:05:55.165Z,20.40
2018-12-15T13:08:59.470Z,20.00
2018-12-15T13:12:03.722Z,21.63
2018-12-15T13:15:08.167Z,16.67
2018-12-15T13:18:12.475Z,18.47
2018-12-15T13:21:16.759Z,19.40
2018-12-15T13:24:21.086Z,20.40
2018-12-15T13:27:25.410Z,18.23
2018-12-15T13:30:29.763Z,18.73
2018-12-15T13:33:37.063Z,22.43
2018-12-15T13:36:41.396Z,20.93
2018-12-15T13:39:45.673Z,19.83
2018-12-15T13:42:50.032Z,23.00
2018-12-15T13:45:54.469Z,19.40
2018-12-15T13:48:58.675Z,20.43
2018-12-15T13:52:02.975Z,19.47
2018-12-15T13:55:07.418Z,18.80
2018-12-15T13:58:11.615Z,22.10
2018-12-15T14:01:15.946Z,20.00
2018-12-15T14:04:20.152Z,19.00
2018-12-15T14:07:24.373Z,18.80
2018-12-15T14:10:28.661Z,20.07
2018-12-15T14:13:32.879Z,16.90
2018-12-15T14:16:37.079Z,17.10
2018-12-15T14:19:41.278Z,16.67
2018-12-15T14:22:45.638Z,21.23
2018-12-15T14:25:49.900Z,22.57
2018-12-15T14:28:54.267Z,19.43
2018-12-15T14:31:58.634Z,41.20
2018-12-15T14:35:02.959Z,22.23
2018-12-15T14:38:07.172Z,24.80
2018-12-15T14:41:11.467Z,18.17
2018-12-15T14:44:15.882Z,18.83
2018-12-15T14:47:20.145Z,19.30
2018-12-15T14:50:24.354Z,20.27
2018-12-15T14:53:28.636Z,21.63
2018-12-15T14:56:32.933Z,19.10
2018-12-15T14:59:37.200Z,20.47
2018-12-15T15:02:41.444Z,18.57
2018-12-15T15:05:45.649Z,17.90
2018-12-15T15:08:49.886Z,18.03
2018-12-15T15:11:54.215Z,17.57
2018-12-15T15:14:58.553Z,18.00
2018-12-15T15:18:02.905Z,15.10
2018-12-15T15:21:07.110Z,16.13
2018-12-15T15:24:11.424Z,14.07
2018-12-15T15:27:15.863Z,14.60
2018-12-15T15:30:20.130Z,15.83
2018-12-15T15:33:24.350Z,14.97
2018-12-15T15:36:28.642Z,15.93
2018-12-15T15:39:32.897Z,16.63
2018-12-15T15:42:37.190Z,17.83
2018-12-15T15:45:41.474Z,16.33
2018-12-15T15:48:45.695Z,17.97
2018-12-15T15:51:49.911Z,18.80
2018-12-15T15:54:54.163Z,17.07
2018-12-15T15:57:58.379Z,20.13
2018-12-15T16:01:02.673Z,18.80
2018-12-15T16:04:06.927Z,21.10
2018-12-15T16:07:11.218Z,20.13
2018-12-15T16:10:15.651Z,20.90
2018-12-15T16:13:19.962Z,22.10
2018-12-15T16:16:33.648Z,21.50
2018-12-15T16:19:37.959Z,21.00
2018-12-15T16:22:42.233Z,20.00
2018-12-15T16:25:46.466Z,19.67
2018-12-15T16:28:50.680Z,21.87
2018-12-15T16:31:55.155Z,19.57
2018-12-15T16:34:59.428Z,22.47
2018-12-15T16:38:03.827Z,19.42
2018-12-15T16:41:08.106Z,14.80
2018-12-15T16:44:12.342Z,16.13
2018-12-15T16:47:16.670Z,17.03
2018-12-15T16:50:20.970Z,14.33
2018-12-15T16:53:25.182Z,17.93
2018-12-15T16:56:29.459Z,16.30
2018-12-15T16:59:33.658Z,12.17
2018-12-15T17:02:38.062Z,14.83
2018-12-15T17:05:42.364Z,15.63
2018-12-15T17:08:46.670Z,14.60
2018-12-15T17:11:50.951Z,15.77
2018-12-15T17:14:55.231Z,18.37
2018-12-15T17:17:59.615Z,17.57
2018-12-15T17:21:03.996Z,17.97
2018-12-15T17:24:08.347Z,16.33
2018-12-15T17:27:25.512Z,15.93
2018-12-15T17:30:29.702Z,13.17
2018-12-15T17:33:34.172Z,15.67
2018-12-15T17:36:38.430Z,15.27
2018-12-15T17:39:42.852Z,14.67
2018-12-15T17:42:47.083Z,13.77
2018-12-15T17:45:51.334Z,15.27
2018-12-15T17:48:55.691Z,12.97
2018-12-15T17:51:59.912Z,28.57
2018-12-15T17:55:05.118Z,15.47
2018-12-15T17:58:14.689Z,14.33
2018-12-15T18:01:15.747Z,15.67
2018-12-15T18:04:20.027Z,13.43
2018-12-15T18:07:24.467Z,15.23
2018-12-15T18:10:28.669Z,14.90
2018-12-15T18:13:33.084Z,13.67
2018-12-15T18:16:37.383Z,12.43
2018-12-15T18:19:41.800Z,16.90
2018-12-15T18:22:46.131Z,15.50
2018-12-15T18:25:50.367Z,13.73
2018-12-15T18:28:54.590Z,15.57
2018-12-15T18:31:58.847Z,16.67
2018-12-15T18:35:03.112Z,17.07
2018-12-15T18:38:07.360Z,14.70
2018-12-15T18:41:11.749Z,16.37
2018-12-15T18:44:15.988Z,17.43
2018-12-15T18:47:20.211Z,15.57
2018-12-15T18:50:24.521Z,16.47
2018-12-15T18:53:28.763Z,18.10
2018-12-15T18:56:32.990Z,16.93
2018-12-15T18:59:37.431Z,16.50
2018-12-15T19:02:41.850Z,14.97
2018-12-15T19:05:46.192Z,16.80
2018-12-15T19:08:50.436Z,17.03
2018-12-15T19:11:54.744Z,19.43
2018-12-15T19:14:59.000Z,17.83
2018-12-15T19:18:03.392Z,14.80
2018-12-15T19:21:08.271Z,20.53
2018-12-15T19:24:12.900Z,14.80
2018-12-15T19:27:17.382Z,16.90
2018-12-15T19:30:21.711Z,18.07
2018-12-15T19:33:26.091Z,17.73
2018-12-15T19:36:30.536Z,14.87
2018-12-15T19:39:34.848Z,15.27
2018-12-15T19:42:39.127Z,16.97
2018-12-15T19:45:43.444Z,14.90
2018-12-15T19:48:47.731Z,15.80
2018-12-15T19:51:52.044Z,16.40
2018-12-15T19:54:56.259Z,13.20
2018-12-15T19:58:00.509Z,14.33
2018-12-15T20:01:04.904Z,16.43
2018-12-15T20:04:09.276Z,14.37
2018-12-15T20:07:13.551Z,14.80
2018-12-15T20:10:17.823Z,13.53
2018-12-15T20:13:22.070Z,14.23
2018-12-15T20:16:27.396Z,12.03
2018-12-15T20:19:31.717Z,14.80
2018-12-15T20:22:36.085Z,14.93
2018-12-15T20:25:42.568Z,12.40
2018-12-15T20:28:46.771Z,14.97
2018-12-15T20:31:51.007Z,15.30
2018-12-15T20:34:55.316Z,12.90
2018-12-15T20:37:59.540Z,14.03
2018-12-15T20:41:03.846Z,14.00
2018-12-15T20:44:08.148Z,11.17
2018-12-15T20:47:12.365Z,13.53
2018-12-15T20:50:16.579Z,13.83
2018-12-15T20:53:20.800Z,13.57
2018-12-15T20:56:25.002Z,11.73
2018-12-15T20:59:29.499Z,12.50
2018-12-15T21:02:33.730Z,13.60
2018-12-15T21:05:38.026Z,13.47
2018-12-15T21:08:42.251Z,11.13
2018-12-15T21:11:46.563Z,15.67
2018-12-15T21:14:50.852Z,12.53
2018-12-15T21:17:55.083Z,13.93
2018-12-15T21:20:59.357Z,13.47
2018-12-15T21:24:03.764Z,12.83
2018-12-15T21:27:08.813Z,13.90
2018-12-15T21:30:13.464Z,13.97
2018-12-15T21:33:17.668Z,16.00
2018-12-15T21:36:21.935Z,13.93
2018-12-15T21:39:26.187Z,16.47
2018-12-15T21:42:31.723Z,15.63
2018-12-15T21:45:36.121Z,16.97
2018-12-15T21:48:40.352Z,18.27
2018-12-15T21:51:44.663Z,14.33
2018-12-15T21:54:48.914Z,15.30
2018-12-15T21:57:53.144Z,14.97
2018-12-15T22:00:57.459Z,17.33
2018-12-15T22:04:01.802Z,17.30
2018-12-15T22:07:06.187Z,16.13
2018-12-15T22:10:10.775Z,16.23
2018-12-15T22:13:15.088Z,15.57
2018-12-15T22:16:19.419Z,16.73
2018-12-15T22:19:23.648Z,16.53
2018-12-15T22:22:27.939Z,18.53
2018-12-15T22:25:32.229Z,15.83
2018-12-15T22:28:36.471Z,17.03
2018-12-15T22:31:40.758Z,14.23
2018-12-15T22:34:45.076Z,15.40
2018-12-15T22:37:49.402Z,13.50
2018-12-15T22:40:53.622Z,15.37
2018-12-15T22:43:57.927Z,15.80
2018-12-15T22:47:02.167Z,16.13
2018-12-15T22:50:09.283Z,16.77
2018-12-15T22:53:13.535Z,15.13
2018-12-15T22:56:17.753Z,15.77
2018-12-15T22:59:22.174Z,14.10
2018-12-15T23:02:26.392Z,15.83
2018-12-15T23:05:30.861Z,16.53
2018-12-15T23:08:35.359Z,15.20
2018-12-15T23:11:39.601Z,17.20
2018-12-15T23:14:44.121Z,14.77
2018-12-15T23:17:48.327Z,17.40
2018-12-15T23:20:53.099Z,16.73
2018-12-15T23:23:57.327Z,16.70
2018-12-15T23:27:01.557Z,17.47
2018-12-15T23:30:08.151Z,17.97
2018-12-15T23:33:12.447Z,17.77
2018-12-15T23:36:16.735Z,17.27
2018-12-15T23:39:20.975Z,16.80
2018-12-15T23:42:25.363Z,18.13
2018-12-15T23:45:29.665Z,17.57
2018-12-15T23:48:34.134Z,17.07
2018-12-15T23:51:38.384Z,16.60
2018-12-15T23:54:42.639Z,16.00
2018-12-15T23:57:46.860Z,17.70
